Lake Santeetlah, North Carolina
Current Conditions -  °F | °C
As of 11:55 AM on Sunday 23 Nov 2014 (Local Time) from KRHP Reporting Station
Light Rain Light Rain  
Wind Chill: 54°   Ceiling: 3000
Heat Index: 54°   Visibility: 7mi
Dew Point: 53°   Wind: 3mph
Humidity: 97%   Direction: 240°WSW
Pressure: 29.93"   Gusts: NA
Location:  35.3435°N, 83.8508°W
Report Text: KRHP 231655Z AUTO 24003KT 7SM -RA OVC030 12/12 A2993 RMK AO2 P0002 T01210117
Loading
Personal Weather Stations






























Interactive Weather Map New forecast layout! Learn more

10-Day Weather Forecast

Advertisements
Track Severe Weather on mobile